Date,TemperatureHighF,TemperatureAvgF,TemperatureLowF,DewpointHighF,DewpointAvgF,DewpointLowF,HumidityHigh,HumidityAvg,HumidityLow,PressureMaxIn,PressureMinIn,WindSpeedMaxMPH,WindSpeedAvgMPH,GustSpeedMaxMPH,PrecipitationSumIn
2013-1-1,55,47,38,54,46,18,99,93,78,29.97,29.46,17,6,19,0.09
2013-1-2,44,38,32,36,32,30,91,80,65,29.84,29.73,14,5,14,0.00
2013-1-3,47,40,31,36,32,29,94,76,62,29.94,29.81,12,4,12,0.00
2013-1-4,44,40,35,42,39,33,100,94,66,30.01,29.88,11,3,14,0.38
2013-1-5,57,45,32,47,42,-81,100,90,1,29.98,29.72,8,2,8,0.01
2013-1-6,61,44,33,40,36,33,99,76,40,29.89,29.77,14,4,14,0.01
2013-1-7,58,46,34,44,37,30,100,73,51,29.98,29.45,8,2,8,0.00
2013-1-8,53,50,47,53,49,44,100,97,79,29.57,29.38,16,3,16,0.64
2013-1-9,58,56,51,58,55,51,99,99,99,29.52,29.30,17,5,17,1.67
2013-1-10,64,53,46,52,49,46,100,87,61,29.55,29.47,18,3,18,0.00
2013-1-11,74,61,43,67,57,-81,100,89,63,29.98,28.99,15,4,15,0.01
2013-1-12,74,66,46,72,63,38,100,91,66,29.98,29.17,24,5,24,0.03
2013-1-13,54,44,36,38,32,27,83,65,49,29.98,29.40,20,10,20,0.00
2013-1-14,52,41,34,34,30,25,77,67,50,29.75,29.58,17,7,18,0.00
2013-1-15,41,36,32,36,33,-81,100,91,1,29.75,29.59,21,7,21,0.07
2013-1-16,54,39,27,29,25,19,85,62,30,29.83,29.67,17,4,17,0.00
2013-1-17,67,48,34,40,34,25,82,61,34,29.98,29.77,13,4,13,0.00
2013-1-18,66,50,36,40,36,32,86,62,34,30.01,29.82,11,2,11,0.01
2013-1-19,69,54,42,51,45,38,100,75,47,29.82,29.65,14,3,14,0.00
2013-1-20,75,57,43,56,48,43,100,75,39,29.75,29.58,10,2,12,0.00
2013-1-21,74,59,49,56,49,42,96,73,49,29.74,29.63,10,3,11,0.00
2013-1-22,72,57,43,54,47,38,87,71,53,29.81,29.69,11,2,11,0.00
2013-1-23,75,62,53,61,56,51,100,84,61,29.84,29.69,14,3,14,0.00
2013-1-24,81,68,59,66,62,59,100,84,58,29.75,29.60,14,4,14,0.01
2013-1-25,80,67,54,65,61,49,100,84,59,29.66,29.52,17,5,17,0.00
2013-1-26,66,56,51,61,55,49,100,94,83,29.69,29.57,8,2,8,0.01
2013-1-27,79,67,56,68,64,56,100,90,67,29.61,29.45,14,5,14,0.00
2013-1-28,77,72,69,70,68,67,100,90,74,29.55,29.37,20,6,20,0.00
2013-1-29,82,71,56,70,59,20,100,71,28,29.37,29.01,27,8,27,0.00
2013-1-30,61,51,40,34,22,10,59,36,18,29.72,29.30,21,6,21,0.00
2013-1-31,70,53,38,27,22,9,59,36,13,29.79,29.66,15,4,15,0.00
2013-2-1,72,58,43,44,38,27,70,50,29,29.86,29.67,16,4,16,0.00
2013-2-2,79,61,45,57,48,42,95,67,41,29.80,29.66,11,3,11,0.00
2013-2-3,74,61,44,49,38,17,77,50,16,29.85,29.53,11,3,11,0.00
2013-2-4,76,64,58,64,58,49,100,83,59,29.54,29.30,14,4,14,0.00
2013-2-5,81,66,52,60,53,46,100,69,33,29.49,29.37,11,3,11,0.00
2013-2-6,77,66,60,66,61,54,100,85,61,29.51,29.34,14,3,14,0.01
2013-2-7,85,68,60,64,56,38,100,71,30,29.59,29.35,20,6,20,0.00
2013-2-8,72,59,48,48,36,20,75,50,18,29.74,29.59,21,5,21,0.00
2013-2-9,68,59,53,68,57,42,100,94,60,29.61,29.28,18,5,18,0.04
2013-2-10,69,62,54,69,49,31,100,68,30,29.52,29.24,15,4,15,0.17
2013-2-11,60,55,51,52,48,42,100,81,62,29.60,29.47,14,4,14,0.09
2013-2-12,71,58,49,59,49,28,99,78,29,29.57,29.32,17,4,17,0.04
2013-2-13,65,50,39,41,37,34,89,65,35,29.66,29.53,24,5,24,0.00
2013-2-14,73,55,39,45,38,32,90,59,27,29.63,29.49,13,3,13,0.00
2013-2-15,65,52,42,44,38,26,83,61,45,29.88,29.57,20,6,20,0.00
2013-2-16,68,50,33,32,29,25,73,49,25,29.94,29.71,14,3,14,0.35
2013-2-17,72,57,39,54,38,30,78,54,29,29.70,29.47,20,6,20,0.00
2013-2-18,82,68,58,65,49,20,95,61,17,29.58,29.32,24,8,24,0.00
2013-2-19,71,58,44,38,32,18,69,43,17,29.79,29.58,16,4,21,0.00
2013-2-20,62,57,53,61,49,36,100,78,47,29.63,29.17,14,4,14,0.03
2013-2-21,79,67,53,68,43,9,99,57,11,29.37,29.08,24,6,24,0.03
2013-2-22,60,51,43,42,36,30,83,60,41,29.57,29.35,19,6,19,0.01
2013-2-23,74,54,40,42,34,27,70,52,23,29.56,29.38,16,4,16,0.00
2013-2-24,76,59,42,60,48,36,95,69,44,29.44,29.10,17,4,17,0.00
2013-2-25,66,56,46,61,39,18,100,59,21,29.33,29.05,41,14,41,0.01
2013-2-26,70,54,39,35,30,24,73,47,23,29.45,29.32,17,5,23,0.00
2013-2-27,66,55,46,36,28,20,58,40,22,29.73,29.36,24,7,24,0.00
2013-2-28,65,50,40,32,28,21,69,46,22,29.83,29.68,20,6,20,0.00
2013-3-1,73,53,35,33,26,12,74,44,14,29.79,29.62,17,4,17,0.00
2013-3-2,65,51,38,32,29,21,74,48,23,29.93,29.76,20,6,20,0.00
2013-3-3,77,59,41,46,33,26,64,43,20,29.77,29.43,20,6,20,0.00
2013-3-4,89,69,55,59,50,42,90,59,24,29.43,29.20,25,6,25,0.00
2013-3-5,69,58,45,59,24,-4,90,38,10,29.87,29.27,30,10,30,0.00
2013-3-6,68,52,39,25,18,8,51,31,13,29.96,29.72,12,4,12,0.00
2013-3-7,76,59,43,56,45,23,80,61,39,29.76,29.59,14,4,14,0.00
2013-3-8,66,61,57,66,59,54,100,93,78,29.66,29.51,15,4,15,0.16
2013-3-9,73,67,62,70,65,61,100,95,82,29.53,29.17,18,6,18,0.06
2013-3-10,68,60,48,66,46,35,99,65,37,29.63,29.21,21,8,21,1.12
2013-3-11,70,52,38,36,29,14,87,50,17,29.68,29.50,18,4,21,0.00
2013-3-12,81,60,43,46,34,25,63,43,19,29.75,29.57,14,4,14,0.00
2013-3-13,79,63,48,44,38,35,62,45,25,29.95,29.75,11,3,11,0.00
2013-3-14,80,65,51,57,50,43,94,63,35,29.89,29.72,15,5,15,0.00
2013-3-15,83,67,53,59,51,39,100,64,25,29.75,29.49,20,6,20,0.03
2013-3-16,86,70,59,64,59,52,100,74,35,29.52,29.24,21,8,21,0.00
2013-3-17,84,72,66,67,64,61,96,77,53,29.32,29.16,17,5,18,0.00
2013-3-18,91,75,63,68,58,42,100,65,22,29.46,29.22,16,6,16,0.00
2013-3-19,85,68,52,67,55,46,85,67,48,29.52,29.35,14,4,17,0.00
2013-3-20,75,62,53,56,49,37,100,68,34,29.76,29.50,21,5,21,0.24
2013-3-21,77,65,55,63,55,41,90,73,57,29.54,29.11,18,5,20,0.00
2013-3-22,86,71,55,70,64,49,100,81,56,29.30,29.14,14,5,21,0.01
2013-3-23,79,61,52,64,55,48,94,82,60,29.31,29.10,11,4,11,0.24
2013-3-24,61,53,42,60,34,24,100,55,27,29.67,29.20,25,9,27,0.00
2013-3-25,62,49,36,29,24,16,64,43,20,29.89,29.67,16,5,16,0.02
2013-3-26,67,51,34,27,24,13,71,40,18,29.99,29.79,9,2,9,0.01
2013-3-27,71,56,40,51,40,26,77,57,40,29.83,29.65,16,4,16,0.00
2013-3-28,74,64,54,62,58,51,94,81,65,29.72,29.62,16,4,16,0.00
2013-3-29,79,68,60,64,60,58,100,78,54,29.69,29.56,14,5,14,0.00
2013-3-30,85,72,65,68,64,61,97,78,51,29.62,29.39,14,4,14,0.00
2013-3-31,81,71,67,70,66,63,100,86,68,29.49,29.37,11,3,12,0.00
2013-4-1,86,72,59,69,64,58,100,78,51,29.57,29.40,13,3,13,0.00
2013-4-2,77,67,55,70,66,55,100,95,77,29.51,29.30,25,4,25,0.17
2013-4-3,55,52,49,55,52,49,99,99,99,29.65,29.34,18,7,24,0.68
2013-4-4,59,51,46,49,47,44,99,87,67,29.73,29.60,19,6,19,0.00
2013-4-5,72,55,40,52,47,40,100,77,47,29.78,29.57,9,2,9,0.00
2013-4-6,80,66,54,62,58,50,100,77,53,29.58,29.36,20,6,20,0.00
2013-4-7,82,70,63,68,64,62,100,85,60,29.44,29.26,13,5,14,0.00
2013-4-8,75,70,67,70,67,64,100,91,79,29.35,29.18,19,5,19,0.00
2013-4-9,84,74,70,72,70,68,100,88,67,29.23,29.11,16,6,16,0.00
2013-4-10,74,57,44,72,54,43,100,92,77,29.46,29.14,22,8,22,0.43
2013-4-11,68,54,42,47,44,40,100,73,45,29.50,29.32,18,4,22,0.04
2013-4-12,81,63,46,54,48,44,94,62,32,29.52,29.36,10,2,10,0.00
2013-4-13,78,68,55,62,55,51,92,66,45,29.48,29.29,11,3,13,0.00
2013-4-14,86,72,60,72,65,57,100,81,60,29.33,29.12,14,4,14,0.00
2013-4-15,87,79,70,73,70,68,100,77,60,29.33,29.20,13,5,16,0.00
2013-4-16,86,76,69,74,70,66,100,83,65,29.42,29.31,16,5,16,0.00
2013-4-17,83,76,73,75,73,71,100,90,70,29.39,29.19,17,5,17,0.00
2013-4-18,74,62,50,74,56,41,100,84,58,29.63,29.16,22,8,22,0.33
2013-4-19,70,56,43,41,33,16,77,48,18,29.81,29.62,18,6,19,0.00
2013-4-20,73,59,43,50,37,30,75,50,26,29.75,29.51,12,3,12,0.00
2013-4-21,78,64,50,61,54,47,93,74,51,29.67,29.52,12,3,12,0.00
2013-4-22,83,71,58,66,62,58,100,77,52,29.62,29.37,13,4,15,0.01
2013-4-23,79,66,50,70,61,44,96,84,62,29.64,29.36,17,6,17,0.00
2013-4-24,67,54,44,44,41,36,88,64,44,29.78,29.63,25,8,25,0.00
2013-4-25,64,57,54,50,46,44,71,66,60,29.86,29.75,11,4,11,0.00
2013-4-29,83,71,67,67,65,63,94,84,59,29.39,29.31,14,3,14,0.00
2013-4-30,83,73,65,70,67,64,100,83,60,29.37,29.24,8,2,10,0.00
2013-5-1,88,77,68,72,69,67,100,80,57,29.48,29.30,12,3,12,0.00
2013-5-2,76,57,47,68,50,38,91,79,65,29.85,29.44,30,10,30,0.00
2013-5-3,71,56,43,38,32,22,72,46,21,29.85,29.59,24,8,24,0.00
2013-5-4,84,66,50,42,34,22,54,36,15,29.60,29.39,19,4,19,0.00
2013-5-5,78,65,51,51,44,35,69,49,35,29.68,29.51,18,5,18,0.00
2013-5-6,77,65,53,54,50,46,80,61,43,29.68,29.52,8,1,8,0.00
2013-5-7,87,71,54,59,54,48,89,60,31,29.61,29.46,11,2,11,0.00
2013-5-8,85,74,65,68,65,58,100,77,54,29.55,29.40,18,4,18,0.00
2013-5-9,78,71,68,73,69,66,100,94,84,29.51,29.35,12,3,12,0.10
2013-5-10,90,72,63,72,66,62,100,86,44,29.56,29.31,22,4,22,1.74
2013-5-11,82,71,62,67,60,51,100,74,44,29.68,29.52,17,5,17,0.00
2013-5-12,83,70,60,62,54,45,80,59,36,29.79,29.64,12,3,12,0.00
2013-5-13,86,72,55,62,54,45,84,58,34,29.80,29.67,10,2,10,0.00
2013-5-14,85,75,63,70,65,60,95,75,52,29.75,29.52,15,4,15,0.00
2013-5-15,83,74,68,76,71,67,100,91,74,29.63,29.36,15,5,15,0.21
2013-5-16,91,78,70,77,73,70,100,86,58,29.42,29.25,17,5,17,0.10
2013-5-17,92,82,75,78,75,72,100,81,61,29.44,29.33,14,4,14,0.00
2013-5-18,94,82,72,76,72,66,100,77,52,29.45,29.34,19,5,19,0.00
2013-5-19,92,81,73,76,73,69,96,79,57,29.40,29.26,15,5,15,0.00
2013-5-20,92,81,73,76,74,71,97,80,56,29.39,29.24,16,5,16,0.00
2013-5-21,90,80,71,77,73,64,100,83,63,29.43,29.24,20,5,20,0.00
2013-5-22,93,78,62,76,66,60,100,72,42,29.48,29.35,8,2,8,0.00
2013-5-23,89,81,75,76,75,74,97,82,65,29.59,29.42,14,3,14,0.00
2013-5-24,84,74,67,77,73,67,100,95,79,29.66,29.55,23,3,23,1.80
2013-5-25,80,74,69,76,73,69,100,97,83,29.68,29.57,13,3,13,0.54
2013-5-26,85,77,71,78,74,71,100,90,74,29.64,29.51,17,4,17,0.88
2013-5-27,88,78,71,76,73,71,100,85,64,29.57,29.38,15,4,15,0.00
2013-5-28,90,80,73,76,73,72,100,82,60,29.46,29.31,20,6,20,0.00
2013-5-29,86,79,74,77,74,72,100,88,70,29.43,29.26,24,6,24,0.00
2013-5-30,90,83,75,78,76,74,100,81,66,29.40,29.30,15,5,15,0.00
2013-5-31,90,82,77,79,76,75,97,84,67,29.43,29.30,14,5,14,0.00
2013-6-1,94,84,77,79,76,75,97,79,59,29.45,29.34,16,4,16,0.00
2013-6-2,88,79,68,76,70,60,100,77,42,29.62,29.37,14,3,14,0.16
2013-6-3,92,79,66,71,66,62,94,68,40,29.54,29.38,10,2,10,0.00
2013-6-4,94,84,72,75,71,65,100,67,45,29.47,29.34,12,4,12,0.00
2013-6-5,94,83,71,74,71,68,100,72,46,29.46,29.29,15,4,15,0.00
2013-6-6,96,84,74,76,71,67,95,70,43,29.97,29.32,17,3,17,0.00
2013-6-7,89,78,70,69,64,57,92,65,39,30.04,29.91,13,3,13,0.00
2013-6-8,93,80,66,73,66,58,83,65,48,29.97,29.81,14,2,14,0.01
2013-6-9,86,80,69,77,75,68,100,85,69,30.02,29.87,17,2,17,0.64
2013-6-10,95,83,72,77,73,67,100,76,44,30.03,29.93,8,2,8,0.00
2013-6-11,93,83,76,77,75,70,100,80,55,30.08,29.98,12,3,12,0.00
2013-6-12,96,84,77,79,75,71,100,79,53,30.09,29.98,14,3,14,0.00
2013-6-13,96,84,78,79,75,69,100,76,50,30.11,29.97,18,4,18,0.00
2013-6-14,92,83,76,80,76,72,97,81,59,30.04,29.93,11,2,11,0.00
2013-6-15,88,83,79,79,77,75,97,82,69,30.04,29.93,9,2,9,0.00
2013-6-16,96,86,77,77,74,70,97,72,46,30.06,29.92,13,4,13,0.00
2013-6-17,97,88,78,78,74,68,93,66,43,30.05,29.88,14,4,14,0.00
2013-6-18,91,81,71,78,75,70,100,82,62,30.07,29.91,11,3,11,0.12
2013-6-19,96,86,77,77,74,69,100,71,47,30.02,29.93,13,3,13,0.00
2013-6-20,96,86,77,77,73,65,97,69,44,30.10,29.98,16,4,16,0.00
2013-6-21,97,87,77,77,72,63,97,67,38,30.12,29.99,19,5,19,0.00
2013-6-22,98,87,78,77,72,64,95,67,40,30.78,29.91,16,4,16,0.00
2013-6-23,96,85,78,77,71,61,94,67,39,30.03,29.92,15,4,15,0.00
2013-6-24,99,86,77,77,73,67,100,70,39,30.08,29.92,17,5,17,0.00
2013-6-25,99,87,79,77,72,64,94,66,36,30.05,29.89,16,5,16,0.00
2013-6-26,100,88,78,77,73,66,91,66,38,30.02,29.90,14,5,14,0.00
2013-6-27,102,89,78,77,69,54,91,60,26,30.08,29.93,12,4,12,0.00
2013-6-28,106,91,77,76,70,60,92,58,28,30.04,29.84,11,3,11,0.00
2013-6-29,108,93,78,74,65,56,72,46,22,29.91,29.78,14,3,14,0.00
2013-6-30,94,85,72,76,70,60,100,66,39,29.98,29.86,10,3,10,0.40
2013-7-1,92,82,73,64,60,55,67,50,33,30.06,29.94,23,4,23,0.00
2013-7-2,94,81,70,64,56,48,71,47,25,30.12,30.00,14,3,14,0.00
2013-7-3,96,82,68,64,53,45,71,42,22,30.08,29.94,14,2,14,0.00
2013-7-4,95,83,72,73,64,51,91,58,27,30.04,29.92,11,2,11,0.00
2013-7-5,100,87,72,74,66,56,91,57,27,30.03,29.87,11,3,11,0.00
2013-7-6,100,87,74,75,70,60,91,61,34,29.99,29.85,13,3,13,0.00
2013-7-7,102,86,76,77,74,67,94,72,37,30.03,29.90,24,3,24,0.00
2013-7-8,89,82,78,80,76,66,97,81,51,30.15,29.94,15,3,15,0.06
2013-7-9,100,88,77,78,74,68,100,70,40,30.04,29.88,12,4,12,0.00
2013-7-10,101,89,78,78,74,67,96,67,38,29.99,29.80,16,4,16,0.00
2013-7-11,102,89,78,78,71,60,91,61,31,29.91,29.75,12,3,12,0.00
2013-7-12,103,90,78,76,69,60,86,57,29,29.87,29.75,11,3,11,0.00
2013-7-13,105,92,78,73,67,58,79,50,25,29.88,29.72,10,2,10,0.00
2013-7-14,97,85,75,73,70,65,90,63,42,29.83,29.75,17,3,17,0.00
2013-7-15,76,73,71,76,72,70,100,98,90,29.93,29.80,9,2,9,1.31
2013-7-16,90,78,71,81,75,71,100,91,65,30.03,29.91,10,2,10,0.07
2013-7-17,91,77,73,81,75,72,100,95,64,30.08,29.94,21,2,21,1.26
2013-7-18,92,80,72,80,74,71,100,84,54,29.97,29.78,14,2,14,0.01
2013-7-19,95,83,73,77,73,68,100,77,47,29.87,29.70,9,3,9,0.00
2013-7-20,95,82,76,80,75,71,100,83,48,30.01,29.65,11,3,11,0.36
2013-7-21,94,82,75,81,78,74,100,88,60,30.03,29.94,19,3,19,0.16
2013-7-22,96,86,78,80,77,73,100,78,52,30.06,29.95,15,4,15,0.00
2013-7-23,96,86,78,78,75,68,96,73,47,30.08,29.92,17,5,17,0.00
2013-7-24,95,86,78,80,76,72,96,76,51,30.07,29.94,14,3,14,0.00
2013-7-25,97,87,77,78,74,66,100,70,44,30.09,30.01,12,3,12,0.00
2013-7-26,98,88,78,80,76,70,100,70,46,30.09,29.92,16,4,16,0.91
2013-7-27,88,81,76,79,75,72,100,83,67,29.94,29.84,14,4,14,0.18
2013-7-28,95,84,75,80,76,72,96,77,54,29.91,29.79,9,3,10,0.00
2013-7-29,98,87,79,78,74,65,94,70,39,29.99,29.88,19,5,19,0.00
2013-7-30,81,80,79,77,76,74,91,87,81,29.99,29.97,13,4,13,0.00
2013-8-11,100,90,82,76,73,69,79,61,40,29.91,29.81,13,4,13,0.01
2013-8-12,98,87,77,76,73,67,95,67,40,29.94,29.80,13,3,13,0.00
2013-8-13,102,90,78,77,72,62,94,61,32,29.91,29.74,11,4,11,0.00
2013-8-14,103,86,79,76,74,66,88,69,35,29.88,29.75,17,4,17,0.01
2013-8-15,96,84,77,78,76,74,95,79,54,29.90,29.78,9,2,9,0.00
2013-8-18,96,88,80,62,59,57,48,41,33,30.03,29.97,10,2,10,0.00
2013-8-19,97,85,73,70,65,57,83,55,37,30.09,29.93,14,2,14,0.00
2013-8-20,99,85,73,74,69,59,93,63,31,30.06,29.95,11,3,11,0.00
2013-8-21,99,85,75,78,73,68,94,71,41,30.11,29.98,17,3,17,0.00
2013-8-22,99,87,76,78,74,70,93,69,43,30.12,29.56,8,2,8,0.00
2013-8-23,99,88,77,77,73,66,95,65,39,30.05,29.61,9,2,9,0.00
2013-8-24,101,89,79,75,72,69,84,61,40,30.07,29.94,17,2,17,0.00
2013-8-25,97,87,77,76,73,69,89,67,47,30.11,30.02,11,3,11,0.00
2013-8-26,93,82,75,76,74,72,95,78,53,30.15,30.04,17,4,17,0.00
2013-8-27,86,80,75,80,74,64,100,83,53,30.14,29.89,8,2,8,0.05
2013-8-28,98,85,74,79,73,68,100,74,42,29.99,29.85,11,2,11,0.00
2013-8-29,102,88,77,74,70,64,87,61,35,29.96,29.81,8,2,8,0.00
2013-8-30,104,90,78,72,68,60,75,52,28,29.89,29.73,10,2,10,0.00
2013-8-31,103,90,78,75,71,65,84,59,34,29.81,29.67,11,3,11,0.00
2013-9-1,101,89,78,77,72,67,89,62,38,29.79,29.66,10,3,10,0.00
2013-9-2,104,89,78,77,73,64,93,64,34,29.86,29.68,12,3,12,0.00
2013-9-3,103,89,77,74,70,64,85,59,33,29.87,29.73,9,2,9,0.00
2013-9-4,102,88,78,78,73,70,100,65,40,29.92,29.78,12,3,12,0.06
2013-9-5,100,86,75,76,72,67,93,68,38,29.97,29.84,10,2,10,0.00
2013-9-6,99,87,76,77,73,66,95,69,40,29.96,29.80,11,2,11,0.00
2013-9-7,100,84,77,78,74,68,95,75,40,29.91,29.75,19,2,19,0.00
2013-9-8,97,83,74,78,74,70,100,79,46,29.86,29.73,11,2,11,0.00
2013-9-9,95,81,74,76,74,70,100,84,48,29.87,29.76,12,2,12,0.04
2013-9-10,93,80,74,78,75,72,100,89,56,29.93,29.84,11,2,11,0.05
2013-9-11,96,83,74,78,74,66,100,77,43,29.98,29.83,12,2,12,0.00
2013-9-12,97,83,74,77,73,67,100,75,41,29.94,29.77,11,1,11,0.01
2013-9-13,99,86,74,75,69,62,94,62,34,29.84,29.67,11,2,11,0.00
2013-9-14,98,86,74,77,70,62,93,63,39,29.81,29.69,11,2,11,0.01
2013-9-15,95,84,75,78,74,68,100,76,47,29.89,29.78,9,2,9,0.00
2013-9-16,95,84,77,78,75,72,100,79,51,29.93,29.81,11,2,11,0.05
2013-9-17,94,82,75,81,76,72,100,84,53,29.93,29.78,8,2,10,0.03
2013-9-18,97,84,75,79,74,69,100,76,46,29.89,29.73,13,2,13,0.00
2013-9-19,96,83,79,79,77,74,100,84,54,29.83,29.67,12,2,12,0.09
2013-9-20,80,76,71,79,75,70,100,99,99,29.74,29.62,19,4,19,3.08
2013-9-21,84,74,67,72,64,54,100,77,44,29.80,29.70,17,6,17,0.03
2013-9-22,86,73,60,60,57,52,86,59,36,29.78,29.64,15,3,15,0.00
2013-9-23,89,74,61,63,58,50,87,62,32,29.71,29.62,5,1,8,0.00
2013-9-24,95,80,68,70,64,59,84,62,35,29.79,29.69,11,2,11,0.00
2013-9-25,95,82,70,68,65,63,81,60,39,29.77,29.64,11,2,11,0.00
2013-9-26,91,81,69,77,68,60,90,67,43,29.77,29.68,14,3,14,0.00
2013-9-27,91,81,77,82,78,76,100,91,67,29.79,29.69,11,3,11,0.10
2013-9-28,90,81,74,84,78,74,100,93,71,29.86,29.73,16,3,17,0.83
2013-9-29,74,70,66,74,69,65,100,98,88,29.93,29.78,11,3,11,1.06
2013-9-30,87,73,63,72,65,59,99,79,44,29.82,29.67,6,1,7,0.00
2013-10-1,88,78,68,78,72,62,100,85,61,29.80,29.69,11,2,11,0.00
2013-10-2,90,81,75,80,76,74,100,88,64,29.83,29.71,10,3,10,0.00
2013-10-3,90,82,77,79,76,73,100,84,62,29.81,29.69,12,3,12,0.00
2013-10-4,90,81,74,78,75,74,100,85,63,29.79,29.69,14,4,14,0.00
2013-10-5,88,76,63,77,69,47,100,80,56,29.93,29.74,17,5,17,0.00
2013-10-6,81,66,55,60,51,37,100,65,27,30.00,29.90,15,4,15,0.27
2013-10-7,84,67,54,57,50,42,87,59,29,30.04,29.89,8,2,8,0.00
2013-10-8,84,69,56,58,54,51,87,62,37,29.96,29.83,11,1,11,0.00
2013-10-9,128,70,62,68,60,54,82,72,52,29.94,29.83,39,2,39,0.00
2013-10-10,86,74,64,72,68,63,100,83,60,29.96,29.80,11,2,11,0.00
2013-10-11,86,60,0,76,74,66,99,65,62,30.06,29.57,12,2,12,0.03
2013-10-12,91,80,72,78,75,70,100,85,61,30.09,29.95,12,3,12,0.03
2013-10-13,74,70,66,74,70,66,100,99,95,30.20,30.07,14,2,14,4.13
2013-10-14,76,73,71,75,72,71,99,99,99,30.14,29.97,11,2,11,0.84
2013-10-15,81,73,59,75,70,57,100,93,78,30.06,29.92,16,4,16,0.01
2013-10-16,60,57,53,59,57,53,100,99,93,30.12,30.01,14,5,14,0.87
2013-10-17,72,60,52,57,52,49,100,78,50,30.18,30.02,11,3,11,0.00
2013-10-18,71,64,55,66,60,54,96,89,77,30.06,29.92,9,1,9,0.00
2013-10-19,66,56,47,63,47,39,94,73,42,30.25,30.04,20,6,20,0.00
2013-10-20,72,58,44,51,47,43,97,72,41,30.14,29.95,11,2,11,0.00
2013-10-21,78,66,59,69,63,52,100,88,73,30.11,29.94,16,2,16,0.16
2013-10-22,75,62,52,58,48,39,90,67,33,30.21,30.10,14,4,14,0.00
2013-10-23,80,64,51,54,48,39,87,61,29,30.22,30.12,10,2,10,0.00
2013-10-24,80,66,55,54,50,46,78,59,35,30.28,30.16,9,2,9,0.00
2013-10-25,78,66,56,64,58,53,95,78,61,30.37,30.24,10,2,10,0.00
2013-10-26,79,69,62,67,64,60,95,85,65,30.27,30.10,13,3,13,0.00
2013-10-27,73,67,64,68,65,63,100,95,80,30.17,30.05,9,2,9,0.43
2013-10-28,80,71,65,72,68,64,100,92,72,30.14,30.02,12,3,12,0.01
2013-10-29,81,74,70,74,71,69,100,89,71,30.12,30.02,13,4,13,0.00
2013-10-30,82,75,72,77,74,71,100,96,84,30.09,29.83,11,3,11,4.67
2013-10-31,77,68,55,72,59,39,100,78,31,29.94,29.80,19,3,19,2.88
2013-11-1,81,64,52,62,49,35,92,63,25,30.12,29.86,16,4,16,0.00
2013-11-2,72,62,53,48,41,29,66,51,24,30.34,30.11,15,5,15,0.00
2013-11-3,68,57,46,55,44,40,87,66,42,30.27,30.06,10,2,10,0.00
2013-11-4,66,62,59,65,61,55,100,96,87,30.12,30.01,8,2,8,0.06
2013-11-5,78,70,65,71,68,65,100,95,76,30.06,29.94,11,3,11,0.00
2013-11-6,71,60,51,71,57,44,100,89,71,30.37,30.03,17,5,17,0.44
2013-11-7,63,53,41,45,41,36,94,68,42,30.50,30.36,16,5,16,0.00
2013-11-8,65,56,50,47,44,39,83,66,44,30.43,30.20,9,1,9,0.00
2013-11-9,69,61,54,60,54,46,91,80,69,30.23,30.14,8,2,8,0.00
2013-11-10,71,63,59,60,58,53,96,84,67,30.35,30.21,5,1,5,0.00
2013-11-11,74,62,52,59,55,50,96,78,55,30.32,30.19,6,1,6,0.00
2013-11-12,59,53,42,57,46,26,97,77,49,30.66,30.28,22,7,22,0.00
2013-11-13,54,42,34,31,28,24,77,59,36,30.69,30.42,13,4,13,0.00
2013-11-14,61,48,33,53,38,29,88,71,42,30.43,30.07,12,2,12,0.00
2013-11-15,75,63,50,62,57,50,100,84,61,30.09,29.90,11,2,11,0.00
2013-11-16,78,71,62,73,68,61,100,91,75,29.96,29.78,17,4,17,0.00
2013-11-17,87,76,68,74,69,60,100,82,44,30.00,29.82,13,3,13,0.00
2013-11-18,77,68,60,67,59,51,100,75,58,30.15,29.99,11,3,11,0.00
2013-11-19,72,62,55,53,48,45,85,63,43,30.20,30.04,9,2,9,0.00
2013-11-20,71,63,57,65,57,50,100,83,70,30.07,29.93,9,2,9,0.01
2013-11-21,78,72,66,74,71,65,100,96,83,30.10,29.96,11,2,11,0.50
2013-11-22,72,41,34,72,41,34,100,99,93,30.42,30.09,24,9,24,2.27
2013-11-23,43,37,34,42,37,34,100,99,97,30.50,30.38,19,9,19,0.24
2013-11-24,42,37,33,41,35,31,100,93,76,30.52,30.33,17,7,17,0.21
2013-11-25,40,36,33,39,36,33,99,99,99,30.36,30.11,20,4,20,1.24
2013-11-26,51,42,36,40,36,30,100,82,58,30.39,30.12,24,8,24,0.00
2013-11-27,50,40,31,31,27,22,85,64,36,30.51,30.36,17,4,17,0.00
2013-11-28,55,41,31,33,30,26,87,69,35,30.48,30.36,8,1,8,0.00
2013-11-29,62,48,33,50,42,31,100,83,62,30.53,30.38,8,1,8,0.00
2013-11-30,65,57,50,58,52,46,100,85,73,30.40,30.22,9,2,9,0.00
2013-12-1,71,62,52,62,59,52,100,88,70,30.24,29.96,15,4,15,0.00
2013-12-2,80,66,56,60,55,44,100,73,32,29.97,29.70,14,3,14,0.00
2013-12-3,81,64,50,56,49,43,95,64,31,29.76,29.63,12,2,12,0.00
2013-12-4,73,64,56,68,61,48,100,90,57,29.84,29.71,11,2,11,0.00
2013-12-5,66,44,32,66,40,26,100,85,69,30.14,29.82,21,8,21,0.01
2013-12-6,35,32,27,34,29,23,100,92,82,30.46,30.07,22,9,22,0.04
2013-12-7,30,27,24,26,23,21,100,87,79,30.49,30.30,21,6,21,0.00
2013-12-8,47,35,26,40,32,26,100,92,75,30.32,30.05,5,1,5,0.00
2013-12-9,38,36,32,38,36,32,100,99,96,30.42,30.07,17,5,17,0.10
2013-12-10,46,34,26,32,26,22,97,74,48,30.53,30.36,14,4,14,0.00
2013-12-11,58,42,28,35,31,25,92,70,39,30.58,30.34,12,2,12,0.00
2013-12-12,53,42,32,37,33,28,88,73,52,30.62,30.34,10,2,10,0.00
2013-12-13,50,45,42,50,43,36,100,91,75,30.34,29.93,8,2,8,0.25
2013-12-14,50,45,37,49,42,33,99,89,74,30.37,29.90,22,6,22,0.00
2013-12-15,60,44,33,38,34,29,90,69,40,30.43,30.30,15,2,15,0.00
2013-12-16,66,50,36,40,35,31,84,61,34,30.33,30.22,13,2,13,0.00
2013-12-17,70,53,41,44,39,32,86,63,33,30.36,30.26,9,2,9,0.00
2013-12-18,68,56,45,57,49,40,100,79,59,30.32,30.09,14,3,14,0.00
2013-12-19,74,64,54,65,60,52,100,89,66,30.10,29.83,23,5,23,0.00
2013-12-20,72,68,65,70,67,64,100,96,85,29.90,29.67,17,4,17,0.00
2013-12-21,71,52,43,70,51,43,100,97,88,29.88,29.62,17,3,17,0.52
2013-12-22,54,45,36,46,39,31,100,82,54,30.40,29.87,18,6,18,0.00
2013-12-23,56,40,30,34,30,27,90,70,39,30.56,30.40,11,3,11,0.00
2013-12-24,58,43,30,40,31,24,100,69,31,30.56,30.30,11,2,11,0.00
2013-12-25,58,48,38,48,44,38,100,87,71,30.43,30.27,13,2,13,0.00
2013-12-26,55,46,36,43,39,34,93,78,61,30.48,30.35,11,3,11,0.00
2013-12-27,59,48,43,44,42,40,93,79,57,30.48,30.34,10,1,10,0.00
2013-12-28,60,49,38,47,42,38,100,79,49,30.35,30.05,8,2,8,0.00
2013-12-29,62,48,33,53,44,30,100,88,71,30.32,30.00,21,5,21,0.00
2013-12-30,43,37,33,32,29,24,91,74,58,30.43,30.26,15,4,15,0.00
2013-12-31,54,42,34,33,31,28,86,68,41,30.49,30.27,5,1,5,0.00
2014-1-1,67,50,37,55,44,32,100,79,63,30.27,30.03,17,4,17,0.00
2014-1-2,52,41,32,51,28,23,100,62,34,30.48,30.14,25,7,25,0.00